Time;durP1;ratioP1;P1;durP2;ratioP2;P2;SDS_P1;SDS_P2;PMS_P1;PMS_P2;Temp;Humidity;BMP_temperature;BMP_pressure;BME280_temperature;BME280_humidity;BME280_pressure;Samples;Min_cycle;Max_cycle;Signal;HPM_P1;HPM_P2
2023/02/24 00:01:23;;;;;;;19.00;10.48;;;;;;;7.30;65.89;97883.44;4973314;28;20034;-76
2023/02/24 00:03:56;;;;;;;18.02;10.50;;;;;;;7.27;66.10;97885.91;4970277;28;20030;-77
2023/02/24 00:06:23;;;;;;;24.38;11.63;;;;;;;7.27;66.05;97883.19;4972801;28;20023;-77
2023/02/24 00:08:48;;;;;;;19.73;10.98;;;;;;;7.26;66.29;97882.38;4973007;28;20041;-76
2023/02/24 00:11:16;;;;;;;20.15;10.38;;;;;;;7.26;66.28;97878.81;4972514;28;20026;-77
2023/02/24 00:13:45;;;;;;;18.75;10.38;;;;;;;7.25;66.13;97864.38;4972372;28;20027;-77
2023/02/24 00:16:16;;;;;;;21.40;11.30;;;;;;;7.25;65.97;97864.38;4972211;28;20026;-76
2023/02/24 00:18:45;;;;;;;18.92;10.77;;;;;;;7.26;65.83;97865.19;4972852;28;20030;-77
2023/02/24 00:21:16;;;;;;;18.90;10.02;;;;;;;7.25;66.43;97869.00;4972511;28;20476;-77
2023/02/24 00:23:45;;;;;;;22.55;11.13;;;;;;;7.24;65.81;97867.38;4971772;28;20119;-77
2023/02/24 00:26:12;;;;;;;19.93;10.73;;;;;;;7.22;66.29;97867.69;4971187;28;20019;-76
2023/02/24 00:28:38;;;;;;;18.77;11.00;;;;;;;7.23;66.31;97865.75;4972345;28;20281;-77
2023/02/24 00:31:14;;;;;;;22.30;11.10;;;;;;;7.20;66.55;97860.88;4972136;28;20081;-77
2023/02/24 00:33:42;;;;;;;20.40;11.32;;;;;;;7.21;66.39;97857.88;4971729;28;20390;-78
2023/02/24 00:36:09;;;;;;;19.73;11.32;;;;;;;7.19;66.49;97857.34;4971540;28;20070;-76
2023/02/24 00:38:36;;;;;;;23.80;12.57;;;;;;;7.18;66.42;97855.72;4971883;28;20026;-78
2023/02/24 00:41:16;;;;;;;20.05;10.57;;;;;;;7.18;66.99;97857.63;4971995;28;20472;-77
2023/02/24 00:43:45;;;;;;;21.67;11.60;;;;;;;7.18;66.43;97852.19;4970569;28;20038;-77
2023/02/24 00:46:16;;;;;;;19.95;11.32;;;;;;;7.18;66.56;97846.72;4971584;28;20026;-77
2023/02/24 00:48:47;;;;;;;20.95;10.68;;;;;;;7.15;66.51;97843.47;4970039;28;20033;-77
2023/02/24 00:51:15;;;;;;;18.73;10.60;;;;;;;7.15;66.83;97842.66;4970429;28;20372;-77
2023/02/24 00:53:42;;;;;;;19.98;11.70;;;;;;;7.11;66.68;97828.81;4971908;28;20047;-77
2023/02/24 00:56:12;;;;;;;23.75;11.55;;;;;;;7.12;66.89;97830.44;4970710;28;20027;-76
2023/02/24 00:58:42;;;;;;;;;;;;;;;7.11;66.79;97826.09;4971113;28;20027;-77
2023/02/24 01:01:13;;;;;;;19.70;10.82;;;;;;;7.10;66.77;97829.91;4969598;28;20441;-77
2023/02/24 01:03:41;;;;;;;20.85;11.82;;;;;;;7.07;66.29;97819.59;4969331;28;20153;-77
2023/02/24 01:06:06;;;;;;;26.48;12.75;;;;;;;7.06;66.48;97823.41;4970955;28;20030;-77
2023/02/24 01:08:35;;;;;;;17.95;10.73;;;;;;;7.07;66.68;97830.50;4971438;28;20046;-77
2023/02/24 01:13:46;;;;;;;20.48;10.35;;;;;;;7.08;66.79;97813.03;4973156;28;20388;-77
2023/02/24 01:16:13;;;;;;;18.88;10.77;;;;;;;7.11;66.58;97808.91;4974071;28;20097;-77
2023/02/24 01:18:40;;;;;;;19.13;10.57;;;;;;;7.13;66.72;97803.97;4971082;28;20027;-76
2023/02/24 01:21:07;;;;;;;23.02;11.93;;;;;;;7.15;66.75;97793.59;4971243;28;20033;-77
2023/02/24 01:23:32;;;;;;;19.13;11.75;;;;;;;7.15;66.54;97793.59;4971005;28;20360;-77
2023/02/24 01:25:58;;;;;;;23.55;11.70;;;;;;;7.18;66.86;97792.19;4971277;28;20026;-77
2023/02/24 01:28:25;;;;;;;22.15;12.00;;;;;;;7.17;66.84;97801.47;4970911;28;20034;-77
2023/02/24 01:30:52;;;;;;;21.88;11.25;;;;;;;7.18;66.91;97797.63;4970708;28;20030;-77
2023/02/24 01:33:17;;;;;;;18.10;10.63;;;;;;;7.19;67.01;97793.81;4970789;28;20027;-77
2023/02/24 01:35:43;;;;;;;21.10;12.13;;;;;;;7.22;66.92;97793.22;4970129;28;20026;-77
2023/02/24 01:38:08;;;;;;;21.80;11.77;;;;;;;7.22;66.71;97776.84;4970382;28;20022;-77
2023/02/24 01:40:34;;;;;;;21.48;11.45;;;;;;;7.23;66.95;97770.31;4970615;28;20031;-76
2023/02/24 01:42:59;;;;;;;22.15;12.13;;;;;;;7.25;66.97;97777.09;4971302;28;20083;-78
2023/02/24 01:45:27;;;;;;;21.52;11.82;;;;;;;7.26;66.94;97776.00;4970028;28;20439;-77
2023/02/24 01:47:59;;;;;;;20.58;10.80;;;;;;;7.28;66.55;97768.34;4969870;28;20023;-77
2023/02/24 01:50:26;;;;;;;17.75;10.55;;;;;;;7.33;67.00;97766.66;4970681;28;20109;-77
2023/02/24 01:52:57;;;;;;;19.65;11.38;;;;;;;7.35;66.71;97762.53;4970506;28;20432;-78
2023/02/24 01:55:49;;;;;;;19.83;10.77;;;;;;;7.38;66.82;97763.84;4968267;28;20507;-78
2023/02/24 01:58:22;;;;;;;17.95;10.20;;;;;;;7.42;66.79;97760.25;4968590;28;20121;-77
2023/02/24 02:00:48;;;;;;;23.17;11.65;;;;;;;7.44;67.50;97762.69;4970410;28;20487;-78
2023/02/24 02:03:22;;;;;;;19.02;10.75;;;;;;;7.49;66.99;97759.09;4969996;28;20042;-78
2023/02/24 02:05:50;;;;;;;19.83;10.35;;;;;;;7.50;67.06;97747.88;4970320;28;20483;-77
2023/02/24 02:08:18;;;;;;;21.35;10.30;;;;;;;7.52;66.80;97756.56;4968712;28;20101;-78
2023/02/24 02:10:45;;;;;;;18.55;10.30;;;;;;;7.55;67.04;97752.44;4970417;28;20130;-77
2023/02/24 02:13:19;;;;;;;16.95;10.02;;;;;;;7.56;67.30;97743.97;4970411;28;20026;-76
2023/02/24 02:15:57;;;;;;;17.25;9.80;;;;;;;7.58;66.92;97747.22;4969959;28;20113;-78
2023/02/24 02:18:34;;;;;;;17.25;10.52;;;;;;;7.62;67.31;97747.44;4969045;28;20069;-77
2023/02/24 02:21:35;;;;;;;18.92;11.05;;;;;;;7.59;67.11;97748.84;4970138;28;20022;-78
2023/02/24 02:24:33;;;;;;;23.67;13.38;;;;;;;7.61;67.32;97743.06;4968202;28;20440;-78
2023/02/24 02:27:28;;;;;;;20.92;10.70;;;;;;;7.59;67.36;97742.56;4969720;28;20054;-77
2023/02/24 02:30:05;;;;;;;19.95;12.65;;;;;;;7.60;67.65;97747.72;4968291;28;20162;-77
2023/02/24 02:32:50;;;;;;;20.30;10.73;;;;;;;7.62;67.77;97741.97;4967231;28;20034;-77
2023/02/24 02:35:39;;;;;;;21.23;10.98;;;;;;;7.60;67.33;97734.09;4968695;28;20665;-77
2023/02/24 02:38:26;;;;;;;21.35;10.77;;;;;;;7.64;67.67;97738.97;4969469;28;20483;-77
2023/02/24 02:40:57;;;;;;;22.42;11.18;;;;;;;7.63;67.78;97737.34;4969596;28;20023;-77
2023/02/24 02:43:33;;;;;;;19.85;10.38;;;;;;;7.61;67.73;97729.44;4969489;28;20034;-77
2023/02/24 02:46:33;;;;;;;19.02;10.93;;;;;;;7.58;68.21;97741.75;4969129;28;20027;-77
2023/02/24 02:49:05;;;;;;;21.50;11.40;;;;;;;7.53;69.11;97730.91;4968642;28;20085;-78
2023/02/24 02:51:41;;;;;;;32.95;16.63;;;;;;;7.38;68.82;97737.38;4969015;28;20023;-78
2023/02/24 02:54:48;;;;;;;24.00;12.82;;;;;;;7.26;69.58;97734.25;4969147;28;20030;-77
2023/02/24 02:57:23;;;;;;;21.38;11.57;;;;;;;7.15;70.59;97720.75;4968500;28;20050;-77
2023/02/24 02:59:56;;;;;;;31.27;14.38;;;;;;;7.06;71.20;97710.78;4969427;28;20416;-77
2023/02/24 03:02:27;;;;;;;34.47;15.45;;;;;;;6.97;71.75;97707.91;4969316;28;20034;-77
2023/02/24 03:04:56;;;;;;;30.02;14.00;;;;;;;6.92;71.49;97705.22;4967920;28;20025;-77
2023/02/24 03:07:30;;;;;;;37.30;17.00;;;;;;;6.88;71.60;97718.66;4969097;28;20007;-77
2023/02/24 03:10:00;;;;;;;28.73;14.88;;;;;;;6.83;73.11;97705.06;4969250;28;20031;-77
2023/02/24 03:12:29;;;;;;;34.03;16.65;;;;;;;6.79;72.47;97704.03;4969990;28;20066;-77
2023/02/24 03:15:02;;;;;;;22.10;12.73;;;;;;;6.77;73.00;97712.47;4968326;28;20106;-77
2023/02/24 03:17:31;;;;;;;22.90;13.38;;;;;;;6.73;73.22;97705.97;4968921;28;20089;-77
2023/02/24 03:20:11;;;;;;;;;;;;;;;6.72;73.00;97698.09;4969514;28;20023;-76
2023/02/24 03:22:42;;;;;;;31.30;15.75;;;;;;;6.70;73.41;97698.41;4969203;28;19929;-77
2023/02/24 03:25:08;;;;;;;31.00;14.77;;;;;;;6.69;73.87;97700.31;4969120;28;20026;-77
2023/02/24 03:27:42;;;;;;;27.30;14.40;;;;;;;6.67;73.57;97698.97;4968858;28;20030;-77
2023/02/24 03:30:26;;;;;;;29.33;15.43;;;;;;;6.66;74.25;97698.16;4969445;28;20030;-77
2023/02/24 03:33:15;;;;;;;29.75;15.20;;;;;;;6.65;73.93;97703.91;4969256;28;20110;-76
2023/02/24 03:35:41;;;;;;;32.22;17.48;;;;;;;6.65;74.21;97701.97;4966381;28;20035;-76
2023/02/24 03:38:09;;;;;;;60.67;23.20;;;;;;;6.63;74.58;97687.03;4969354;28;20102;-77
2023/02/24 03:40:37;;;;;;;54.70;21.38;;;;;;;6.60;74.75;97699.31;4969073;28;20059;-77
2023/02/24 03:43:12;;;;;;;38.38;18.00;;;;;;;6.60;74.51;97693.06;4968849;28;20414;-77
2023/02/24 03:45:39;;;;;;;30.33;15.27;;;;;;;6.60;74.54;97688.41;4968756;28;20086;-77
2023/02/24 03:48:07;;;;;;;40.22;19.13;;;;;;;6.59;74.95;97684.06;4969188;28;20034;-77
2023/02/24 03:50:34;;;;;;;52.03;20.88;;;;;;;6.57;75.44;97688.97;4968241;28;20038;-77
2023/02/24 03:53:11;;;;;;;80.15;30.13;;;;;;;6.53;75.15;97669.69;4968739;28;20029;-77
2023/02/24 03:56:02;;;;;;;69.22;25.33;;;;;;;6.53;75.12;97669.69;4968486;28;20034;-77
2023/02/24 03:58:31;;;;;;;44.90;20.05;;;;;;;6.52;75.37;97667.28;4969774;28;20563;-76
2023/02/24 04:01:12;;;;;;;34.13;16.15;;;;;;;6.52;75.31;97668.06;4972677;28;20031;-76
2023/02/24 04:03:59;;;;;;;37.30;16.83;;;;;;;6.53;75.44;97660.69;4971833;28;20130;-76
2023/02/24 04:06:54;;;;;;;40.22;20.35;;;;;;;6.50;75.95;97659.38;4971424;28;20061;-76
2023/02/24 04:09:40;;;;;;;32.72;16.35;;;;;;;6.49;74.99;97651.50;4969534;28;20035;-77
2023/02/24 04:12:17;;;;;;;24.92;13.73;;;;;;;6.48;76.10;97649.88;4968209;28;20472;-76
2023/02/24 04:15:03;;;;;;;26.35;13.15;;;;;;;6.48;75.48;97647.16;4971005;28;20495;-77
2023/02/24 04:17:42;;;;;;;25.23;13.68;;;;;;;6.48;75.67;97638.97;4969735;28;20031;-76
2023/02/24 04:20:19;;;;;;;22.45;13.30;;;;;;;6.48;76.15;97645.22;4971060;28;20117;-76
2023/02/24 04:22:48;;;;;;;27.23;14.35;;;;;;;6.46;76.34;97635.75;4972262;28;20117;-76
2023/02/24 04:25:23;;;;;;;28.63;14.85;;;;;;;6.44;76.02;97638.72;4971184;28;20023;-76
2023/02/24 04:27:51;;;;;;;31.88;15.93;;;;;;;6.43;75.89;97631.66;4970372;28;20069;-77
2023/02/24 04:30:18;;;;;;;31.23;16.13;;;;;;;6.43;76.79;97628.94;4970934;28;20026;-77
2023/02/24 04:32:44;;;;;;;30.55;14.55;;;;;;;6.39;75.80;97627.88;4971824;28;20031;-76
2023/02/24 04:35:16;;;;;;;35.25;17.40;;;;;;;6.39;76.30;97622.44;4971705;28;20501;-77
2023/02/24 04:37:43;;;;;;;34.00;17.33;;;;;;;6.40;76.41;97615.91;4971327;28;20031;-77
2023/02/24 04:40:15;;;;;;;29.02;15.35;;;;;;;6.37;76.43;97614.56;4971650;28;20081;-77
2023/02/24 04:42:45;;;;;;;36.83;19.23;;;;;;;6.36;76.60;97599.34;4971506;28;20066;-77
2023/02/24 04:45:12;;;;;;;38.47;18.20;;;;;;;6.34;76.87;97604.25;4971206;28;20027;-77
2023/02/24 04:47:41;;;;;;;28.35;15.20;;;;;;;6.34;76.41;97606.16;4970071;28;20031;-76
2023/02/24 04:50:10;;;;;;;25.55;12.98;;;;;;;6.33;76.61;97601.81;4970068;28;20050;-76
2023/02/24 04:52:36;;;;;;;27.83;14.27;;;;;;;6.33;76.92;97596.34;4971520;28;20121;-77
2023/02/24 04:55:08;;;;;;;26.20;13.10;;;;;;;6.34;77.19;97587.09;4971025;28;20436;-76
2023/02/24 04:57:36;;;;;;;25.35;13.50;;;;;;;6.33;76.61;97578.13;4971438;28;20504;-76
2023/02/24 05:00:12;;;;;;;26.35;14.75;;;;;;;6.33;76.94;97588.19;4969572;28;20054;-76
2023/02/24 05:02:37;;;;;;;26.40;14.80;;;;;;;6.32;77.00;97572.94;4970434;28;20081;-76
2023/02/24 05:05:06;;;;;;;27.17;16.42;;;;;;;6.28;76.82;97561.03;4969461;28;20043;-76
2023/02/24 05:07:32;;;;;;;25.38;13.18;;;;;;;6.30;77.26;97570.53;4971414;28;20450;-76
2023/02/24 05:09:57;;;;;;;27.75;14.73;;;;;;;6.30;77.03;97562.38;4972224;28;20073;-76
2023/02/24 05:12:23;;;;;;;28.52;14.35;;;;;;;6.29;76.99;97549.84;4971933;28;20062;-76
2023/02/24 05:14:48;;;;;;;34.50;18.23;;;;;;;6.27;77.24;97553.97;4971686;28;20033;-76
2023/02/24 05:17:15;;;;;;;28.77;15.75;;;;;;;6.24;77.32;97548.00;4971775;28;20113;-75
2023/02/24 05:22:24;;;;;;;26.83;15.38;;;;;;;6.21;77.43;97545.03;4971962;28;20058;-75
2023/02/24 05:24:50;;;;;;;26.98;14.60;;;;;;;6.21;77.16;97542.31;4971870;28;20038;-76
2023/02/24 05:27:16;;;;;;;32.15;15.60;;;;;;;6.21;78.02;97543.13;4971964;28;20089;-76
2023/02/24 05:29:42;;;;;;;29.48;16.05;;;;;;;6.20;77.99;97537.97;4972223;28;20035;-76
2023/02/24 05:32:08;;;;;;;28.25;16.98;;;;;;;6.21;77.60;97537.69;4972407;28;20054;-76
2023/02/24 05:34:34;;;;;;;26.75;15.70;;;;;;;6.22;77.25;97541.22;4970711;28;20740;-77
2023/02/24 05:37:06;;;;;;;27.60;14.90;;;;;;;6.24;78.23;97542.56;4971629;28;20113;-76
2023/02/24 05:39:31;;;;;;;28.95;15.63;;;;;;;6.24;77.38;97545.28;4970799;28;20410;-76
2023/02/24 05:41:57;;;;;;;29.95;16.65;;;;;;;6.28;77.72;97539.25;4971962;28;20041;-76
2023/02/24 05:44:24;;;;;;;30.83;17.58;;;;;;;6.31;78.06;97544.13;4970914;28;20034;-77
2023/02/24 05:46:56;;;;;;;28.80;15.23;;;;;;;6.29;77.79;97549.84;4970177;28;20034;-76
2023/02/24 05:49:26;;;;;;;33.78;16.15;;;;;;;6.30;77.91;97556.13;4967873;28;20554;-77
2023/02/24 05:51:55;;;;;;;27.20;14.57;;;;;;;6.31;77.91;97552.28;4970125;28;20443;-75
2023/02/24 05:54:28;;;;;;;28.23;15.65;;;;;;;6.30;78.06;97562.38;4970971;28;20031;-76
2023/02/24 05:56:58;;;;;;;26.70;14.98;;;;;;;6.30;78.23;97550.69;4970826;28;20054;-76
2023/02/24 05:59:31;;;;;;;26.88;14.88;;;;;;;6.31;78.24;97550.38;4970925;28;20062;-75
2023/02/24 06:02:05;;;;;;;27.92;14.75;;;;;;;6.33;78.13;97559.06;4971170;28;20118;-76
2023/02/24 06:04:44;;;;;;;28.52;15.60;;;;;;;6.34;78.36;97551.69;4971143;28;20126;-76
2023/02/24 06:07:21;;;;;;;27.02;14.63;;;;;;;6.33;78.29;97552.78;4971481;28;20490;-77
2023/02/24 06:09:48;;;;;;;26.70;14.63;;;;;;;6.32;78.35;97552.00;4971131;28;20471;-75
2023/02/24 06:12:15;;;;;;;35.00;21.42;;;;;;;6.32;78.10;97548.44;4970853;28;20085;-76
2023/02/24 06:14:41;;;;;;;26.20;15.60;;;;;;;6.33;77.58;97558.22;4970174;28;20034;-76
2023/02/24 06:17:07;;;;;;;30.52;16.63;;;;;;;6.36;77.95;97550.31;4970538;28;20026;-76
2023/02/24 06:19:33;;;;;;;32.45;19.10;;;;;;;6.36;78.13;97544.03;4970748;28;20050;-76
2023/02/24 06:22:00;;;;;;;29.15;15.73;;;;;;;6.39;77.89;97554.34;4969493;28;20399;-75
2023/02/24 06:24:27;;;;;;;26.50;14.30;;;;;;;6.40;78.65;97553.25;4970444;28;20077;-76
2023/02/24 06:27:01;;;;;;;28.65;15.32;;;;;;;6.39;78.01;97548.91;4970989;28;20077;-77
2023/02/24 06:29:28;;;;;;;28.98;14.52;;;;;;;6.42;77.93;97555.69;4971123;28;20073;-77
2023/02/24 06:31:56;;;;;;;27.48;14.38;;;;;;;6.44;78.52;97551.56;4971242;28;20041;-77
2023/02/24 06:34:23;;;;;;;35.63;20.10;;;;;;;6.43;78.19;97547.22;4970912;28;20118;-77
2023/02/24 06:36:50;;;;;;;31.30;15.73;;;;;;;6.42;78.21;97534.72;4971626;28;20026;-78
2023/02/24 06:39:15;;;;;;;30.00;17.90;;;;;;;6.40;78.20;97526.84;4971298;28;20038;-78
2023/02/24 06:41:41;;;;;;;29.60;15.70;;;;;;;6.42;77.91;97531.97;4970928;28;20563;-77
2023/02/24 06:44:08;;;;;;;24.95;15.23;;;;;;;6.45;78.05;97534.13;4970473;28;20444;-77
2023/02/24 06:46:34;;;;;;;25.95;14.75;;;;;;;6.47;78.48;97533.84;4970286;28;20039;-76
2023/02/24 06:48:59;;;;;;;26.95;15.55;;;;;;;6.48;78.31;97519.94;4970160;28;20102;-77
2023/02/24 06:51:28;;;;;;;29.55;15.02;;;;;;;6.52;78.22;97533.78;4969049;28;20133;-76
2023/02/24 06:53:55;;;;;;;30.73;15.87;;;;;;;6.53;78.27;97529.94;4969664;28;20043;-75
2023/02/24 06:56:20;;;;;;;35.03;18.58;;;;;;;6.52;78.38;97533.78;4969418;28;20034;-77
2023/02/24 06:58:51;;;;;;;35.92;20.67;;;;;;;6.54;78.35;97529.66;4965200;28;20031;-79
2023/02/24 07:01:24;;;;;;;32.08;17.83;;;;;;;6.54;78.57;97526.94;4968948;28;20026;-79
2023/02/24 07:06:36;;;;;;;28.80;15.88;;;;;;;6.59;78.45;97527.97;4968645;28;20049;-78
2023/02/24 07:09:06;;;;;;;29.58;16.63;;;;;;;6.58;78.59;97521.69;4968156;28;20042;-79
2023/02/24 07:11:32;;;;;;;;;;;;;;;6.60;78.23;97522.22;4969553;28;20042;-80
2023/02/24 07:13:58;;;;;;;45.78;23.02;;;;;;;6.64;78.51;97527.91;4968432;28;20371;-79
2023/02/24 07:16:27;;;;;;;32.63;16.75;;;;;;;6.63;78.31;97520.84;4964674;28;20046;-79
2023/02/24 07:19:03;;;;;;;36.50;17.95;;;;;;;6.64;78.59;97527.91;4979239;28;20428;-79
2023/02/24 07:21:38;;;;;;;34.40;19.42;;;;;;;6.65;78.86;97522.16;4967690;28;20042;-77
2023/02/24 07:24:04;;;;;;;38.42;26.20;;;;;;;6.64;78.58;97508.84;4967441;28;20023;-81
2023/02/24 07:26:30;;;;;;;38.22;20.45;;;;;;;6.66;78.63;97518.31;4967495;28;20038;-78
2023/02/24 07:28:56;;;;;;;36.15;19.83;;;;;;;6.72;78.65;97512.81;4967868;28;20138;-78
2023/02/24 07:31:23;;;;;;;42.30;20.58;;;;;;;6.74;78.78;97516.84;4968405;28;20383;-77
2023/02/24 07:33:52;;;;;;;33.78;16.92;;;;;;;6.80;78.87;97506.69;4968230;28;20050;-77
2023/02/24 07:36:22;;;;;;;35.17;17.73;;;;;;;6.83;78.54;97512.34;4972032;28;20026;-80
2023/02/24 07:38:52;;;;;;;31.65;16.85;;;;;;;6.92;78.69;97506.25;4972686;28;20061;-79
2023/02/24 07:41:21;;;;;;;33.80;18.98;;;;;;;6.95;78.91;97505.66;4977353;28;20030;-78
2023/02/24 07:43:49;;;;;;;36.15;19.02;;;;;;;6.98;78.78;97505.06;4971888;28;20483;-79
2023/02/24 07:46:23;;;;;;;37.38;18.55;;;;;;;7.03;78.91;97501.44;4970308;28;20026;-78
2023/02/24 07:48:49;;;;;;;36.72;18.20;;;;;;;7.09;78.71;97505.72;4970791;28;20137;-79
2023/02/24 07:51:21;;;;;;;56.95;25.67;;;;;;;7.13;79.07;97493.91;4970984;28;20031;-78
2023/02/24 07:53:51;;;;;;;54.00;27.58;;;;;;;7.17;78.90;97496.84;4971161;28;20050;-79
2023/02/24 07:56:19;;;;;;;48.45;24.48;;;;;;;7.21;78.65;97497.06;4970708;28;20131;-79
2023/02/24 07:58:49;;;;;;;37.22;21.08;;;;;;;7.26;78.77;97495.06;4971716;28;20120;-81
2023/02/24 08:01:22;;;;;;;39.58;19.95;;;;;;;7.32;78.74;97486.81;4970074;28;20042;-79
2023/02/24 08:03:50;;;;;;;36.90;19.63;;;;;;;7.35;78.65;97492.47;4968264;28;20041;-79
2023/02/24 08:06:36;;;;;;;36.95;18.90;;;;;;;7.38;78.64;97485.59;4970736;28;20035;-79
2023/02/24 08:09:19;;;;;;;34.03;20.08;;;;;;;7.37;78.95;97483.97;4968888;28;20034;-82
2023/02/24 08:11:53;;;;;;;33.15;18.75;;;;;;;7.33;78.70;97483.78;4971939;28;20045;-79
2023/02/24 08:14:22;;;;;;;37.72;20.10;;;;;;;7.33;78.92;97474.81;4969567;28;20034;-81
2023/02/24 08:16:49;;;;;;;36.53;19.98;;;;;;;7.29;78.75;97467.22;4970866;28;20038;-81
2023/02/24 08:19:20;;;;;;;43.78;23.55;;;;;;;7.27;78.77;97474.88;4971832;28;20446;-80
2023/02/24 08:21:51;;;;;;;40.72;23.52;;;;;;;7.23;78.76;97471.13;4970393;28;20050;-80
2023/02/24 08:24:22;;;;;;;38.75;20.75;;;;;;;7.23;79.05;97453.94;4969062;28;20077;-83
2023/02/24 08:27:03;;;;;;;33.13;18.25;;;;;;;7.23;78.78;97465.69;4968119;28;20054;-80
2023/02/24 08:29:56;;;;;;;37.05;18.73;;;;;;;7.21;79.06;97462.44;4969707;28;20037;-78
2023/02/24 08:32:22;;;;;;;35.13;18.38;;;;;;;7.21;78.52;97462.44;4965829;28;20137;-79
2023/02/24 08:34:49;;;;;;;35.97;20.03;;;;;;;7.23;78.81;97459.41;4971065;28;20027;-82
2023/02/24 08:37:15;;;;;;;32.75;18.55;;;;;;;7.26;78.74;97456.91;4970081;28;20282;-81
2023/02/24 08:39:42;;;;;;;40.80;22.00;;;;;;;7.28;78.98;97459.31;4969148;28;20035;-79
2023/02/24 08:42:08;;;;;;;38.53;20.60;;;;;;;7.30;79.05;97465.28;4967725;28;20039;-79
2023/02/24 08:44:36;;;;;;;35.33;19.73;;;;;;;7.35;78.89;97448.81;4970413;28;20038;-79
2023/02/24 08:47:04;;;;;;;35.08;18.85;;;;;;;7.40;78.73;97446.00;4970038;28;20078;-78
2023/02/24 08:49:32;;;;;;;34.85;18.75;;;;;;;7.41;78.97;97447.63;4970382;28;20043;-78
2023/02/24 08:52:01;;;;;;;38.13;20.58;;;;;;;7.44;78.82;97446.22;4969765;28;20038;-78
2023/02/24 08:54:30;;;;;;;35.47;17.97;;;;;;;7.45;78.70;97436.91;4964788;28;20035;-75
2023/02/24 08:57:06;;;;;;;36.20;19.15;;;;;;;7.47;79.24;97447.53;4968057;28;20047;-80
2023/02/24 08:59:36;;;;;;;41.45;21.02;;;;;;;7.45;78.94;97437.75;4969176;28;20045;-81
2023/02/24 09:02:19;;;;;;;38.05;22.05;;;;;;;7.43;78.55;97441.84;4969745;28;20471;-79
2023/02/24 09:04:53;;;;;;;35.17;20.23;;;;;;;7.42;78.98;97440.25;4968139;28;20031;-79
2023/02/24 09:07:27;;;;;;;39.60;21.55;;;;;;;7.41;78.88;97441.34;4971020;28;20046;-82
2023/02/24 09:09:55;;;;;;;43.03;25.17;;;;;;;7.43;78.78;97434.50;4967093;28;20027;-81
2023/02/24 09:12:27;;;;;;;47.33;29.38;;;;;;;7.46;78.80;97433.06;4969579;28;20030;-78
2023/02/24 09:15:03;;;;;;;44.35;23.83;;;;;;;7.50;78.89;97430.56;4969400;28;20502;-81
2023/02/24 09:17:39;;;;;;;54.08;29.38;;;;;;;7.58;78.96;97429.84;4968258;28;20037;-83
2023/02/24 09:23:08;;;;;;;47.25;30.15;;;;;;;7.73;78.79;97418.66;4969951;28;20049;-80
2023/02/24 09:28:47;;;;;;;45.58;27.30;;;;;;;7.81;78.37;97408.16;4969444;28;20047;-85
2023/02/24 09:31:15;;;;;;;44.25;27.67;;;;;;;7.83;78.61;97398.53;4969048;28;20027;-76
2023/02/24 09:33:42;;;;;;;41.28;24.50;;;;;;;7.86;78.50;97389.72;4970412;28;20365;-83
2023/02/24 09:36:26;;;;;;;36.67;21.35;;;;;;;7.87;78.83;97393.28;4968668;28;20058;-84
2023/02/24 09:44:32;;;;;;;40.65;21.95;;;;;;;8.09;78.83;97399.91;4969064;28;20053;-81
2023/02/24 09:47:50;;;;;;;39.85;22.35;;;;;;;8.17;78.96;97401.94;4967767;28;20027;-78
2023/02/24 09:50:18;;;;;;;38.00;21.95;;;;;;;8.32;78.80;97389.84;4968985;28;20077;-80
2023/02/24 09:52:45;;;;;;;38.47;22.00;;;;;;;8.42;78.23;97386.06;4968243;28;20042;-79
2023/02/24 09:55:25;;;;;;;38.95;21.88;;;;;;;8.53;79.16;97384.75;4968038;28;20121;-79
2023/02/24 10:01:22;;;;;;;37.55;21.58;;;;;;;8.68;78.56;97382.78;4966781;28;20073;-81
2023/02/24 10:04:04;;;;;;;39.42;21.17;;;;;;;8.69;78.52;97382.47;4973191;28;20065;-81
2023/02/24 10:06:43;;;;;;;44.35;25.30;;;;;;;8.68;78.20;97382.78;4968650;28;20027;-82
2023/02/24 10:09:33;;;;;;;40.97;22.42;;;;;;;8.69;78.61;97378.94;4968992;28;20037;-85
2023/02/24 10:12:11;;;;;;;36.70;20.83;;;;;;;8.69;78.38;97379.72;4968766;28;20074;-80
2023/02/24 10:15:18;;;;;;;37.78;21.13;;;;;;;8.75;78.45;97364.81;4965437;28;20050;-81
2023/02/24 10:17:51;;;;;;;37.20;20.38;;;;;;;8.79;77.80;97363.09;4966526;28;20043;-81
2023/02/24 10:20:38;;;;;;;36.67;20.83;;;;;;;8.87;77.66;97356.06;4967168;28;20235;-81
2023/02/24 10:23:28;;;;;;;34.50;18.98;;;;;;;8.93;77.53;97341.13;4966089;28;20450;-82
2023/02/24 10:26:30;;;;;;;37.92;21.90;;;;;;;8.99;77.60;97341.81;4967325;28;20089;-81
2023/02/24 10:29:28;;;;;;;34.70;20.13;;;;;;;9.14;77.87;97326.94;4968228;28;20038;-82
2023/02/24 10:32:00;;;;;;;40.55;22.35;;;;;;;9.26;77.45;97312.66;4966585;28;20058;-82
2023/02/24 10:34:30;;;;;;;37.53;20.83;;;;;;;9.33;77.79;97309.47;4969406;28;20039;-83
2023/02/24 10:37:26;;;;;;;40.38;22.33;;;;;;;9.34;77.08;97311.06;4968547;28;20085;-80
2023/02/24 10:39:55;;;;;;;35.70;19.80;;;;;;;9.37;76.94;97310.44;4970289;28;20046;-84
2023/02/24 10:42:30;;;;;;;38.17;19.77;;;;;;;9.35;76.88;97312.69;4969027;28;20093;-83
2023/02/24 10:45:24;;;;;;;35.63;20.02;;;;;;;9.31;76.74;97312.53;4969364;28;20027;-85
2023/02/24 10:47:55;;;;;;;36.33;20.60;;;;;;;9.28;76.45;97309.59;4969457;28;20074;-82
2023/02/24 10:50:26;;;;;;;35.40;19.50;;;;;;;9.25;76.35;97311.03;4969632;28;20035;-86
2023/02/24 10:53:10;;;;;;;35.50;19.98;;;;;;;9.21;76.16;97308.13;4967623;28;20022;-82
2023/02/24 10:55:52;;;;;;;36.33;18.95;;;;;;;9.18;76.67;97303.28;4968049;28;20027;-78
2023/02/24 10:58:36;;;;;;;35.28;19.48;;;;;;;9.18;77.12;97297.81;4968430;28;20838;-82
2023/02/24 11:01:19;;;;;;;36.55;20.25;;;;;;;9.15;75.82;97295.72;4970320;28;20023;-86
2023/02/24 11:04:21;;;;;;;37.45;20.88;;;;;;;9.14;76.12;97296.84;4969548;28;20038;-89
2023/02/24 11:06:56;;;;;;;37.95;20.67;;;;;;;9.13;76.42;97281.56;4967172;28;20034;-84
2023/02/24 11:18:05;;;;;;;36.70;20.00;;;;;;;9.21;76.69;97247.94;4973482;28;20082;-86
2023/02/24 11:20:37;;;;;;;34.83;19.23;;;;;;;9.26;76.22;97233.31;4974403;28;20026;-88
2023/02/24 11:23:08;;;;;;;33.58;18.95;;;;;;;9.32;76.18;97232.06;4975514;28;20118;-88
2023/02/24 11:25:40;;;;;;;35.95;19.08;;;;;;;9.37;76.35;97228.34;4973168;28;20395;-90
2023/02/24 11:28:27;;;;;;;34.40;18.10;;;;;;;9.38;75.84;97224.50;4974607;28;20431;-85
2023/02/24 11:31:24;;;;;;;35.90;18.55;;;;;;;9.37;75.44;97212.72;4974460;28;20089;-86
2023/02/24 11:34:11;;;;;;;37.85;21.85;;;;;;;9.39;75.87;97215.16;4963879;28;20042;-87
2023/02/24 11:36:53;;;;;;;34.55;20.38;;;;;;;9.39;75.52;97215.16;4974583;28;20476;-88
2023/02/24 11:39:29;;;;;;;37.50;21.10;;;;;;;9.41;75.70;97212.91;4974190;28;20038;-90
2023/02/24 11:42:00;;;;;;;37.53;24.08;;;;;;;9.43;75.41;97215.31;4974215;28;20121;-86
2023/02/24 11:44:41;;;;;;;35.75;19.98;;;;;;;9.43;74.97;97218.88;4973868;28;20058;-87
2023/02/24 11:47:14;;;;;;;35.97;21.45;;;;;;;9.46;74.99;97212.75;4974430;28;20102;-87
2023/02/24 11:49:44;;;;;;;38.45;21.52;;;;;;;9.46;75.19;97220.16;4972005;28;20105;-87
2023/02/24 11:52:19;;;;;;;38.80;20.58;;;;;;;9.38;74.99;97192.44;4975692;28;20030;-87
2023/02/24 11:54:52;;;;;;;36.78;20.58;;;;;;;9.33;74.45;97197.28;4973694;28;20538;-87
2023/02/24 11:57:31;;;;;;;39.60;21.52;;;;;;;9.29;74.76;97196.28;4974447;28;20109;-86
2023/02/24 12:00:04;;;;;;;37.35;21.98;;;;;;;9.27;74.67;97193.91;4976163;28;20015;-87
2023/02/24 12:02:49;;;;;;;36.60;22.83;;;;;;;9.26;74.98;97188.72;4975238;28;20034;-86
2023/02/24 12:05:20;;;;;;;38.20;22.95;;;;;;;9.21;74.68;97186.97;4975560;28;20046;-83
2023/02/24 12:07:51;;;;;;;37.67;21.75;;;;;;;9.13;74.99;97183.09;4972800;28;20450;-86
2023/02/24 12:10:22;;;;;;;35.83;22.15;;;;;;;9.10;75.16;97175.50;4972520;28;20041;-82
2023/02/24 12:13:20;;;;;;;36.88;22.08;;;;;;;9.06;74.97;97177.28;4973824;28;20496;-83
2023/02/24 12:15:58;;;;;;;39.55;22.15;;;;;;;9.01;74.71;97170.00;4972215;28;20053;-90
2023/02/24 12:18:30;;;;;;;38.67;21.88;;;;;;;8.98;75.01;97167.91;4973509;28;20034;-85
2023/02/24 12:21:04;;;;;;;34.97;20.20;;;;;;;8.97;74.82;97166.28;4970738;28;20034;-87
2023/02/24 12:23:43;;;;;;;38.08;22.73;;;;;;;8.93;75.51;97154.41;4970358;28;20043;-87
2023/02/24 12:26:19;;;;;;;39.10;21.30;;;;;;;8.92;74.78;97150.06;4969990;28;20255;-86